Time;durP1;ratioP1;P1;durP2;ratioP2;P2;SDS_P1;SDS_P2;PMS_P1;PMS_P2;Temp;Humidity;BMP_temperature;BMP_pressure;BME280_temperature;BME280_humidity;BME280_pressure;Samples;Min_cycle;Max_cycle;Signal;HPM_P1;HPM_P2
2024/01/15 00:02:15;;;;;;;130.93;70.43;;;;;;;-2.38;100.00;99931.88;5008642;28;20399;-70
2024/01/15 00:04:40;;;;;;;153.27;80.97;;;;;;;-2.93;100.00;99922.25;5027646;28;20116;-70
2024/01/15 00:07:09;;;;;;;120.85;66.22;;;;;;;-2.37;100.00;99936.03;5008368;28;20122;-70
2024/01/15 00:09:35;;;;;;;119.28;62.15;;;;;;;-2.42;100.00;99931.78;5027097;28;20035;-70
2024/01/15 00:12:01;;;;;;;114.18;62.17;;;;;;;-2.57;100.00;99957.13;5027663;28;20116;-70
2024/01/15 00:14:27;;;;;;;116.07;61.95;;;;;;;-2.52;100.00;99964.69;5008468;28;20029;-68
2024/01/15 00:16:54;;;;;;;115.40;61.33;;;;;;;-2.48;100.00;99947.41;5010007;28;20041;-70
2024/01/15 00:19:21;;;;;;;119.95;59.67;;;;;;;-2.66;100.00;99956.91;5028106;28;20027;-70
2024/01/15 00:21:47;;;;;;;122.53;64.97;;;;;;;-2.81;100.00;99968.97;5009611;28;20099;-69
2024/01/15 00:24:13;;;;;;;114.53;60.90;;;;;;;-2.76;100.00;99926.00;5027249;28;20053;-70
2024/01/15 00:26:38;;;;;;;112.78;56.80;;;;;;;-2.42;100.00;99941.72;5027539;28;20423;-70
2024/01/15 00:29:04;;;;;;;109.43;59.13;;;;;;;-2.39;100.00;99932.66;5027555;28;20029;-70
2024/01/15 00:31:30;;;;;;;121.80;65.97;;;;;;;-2.43;100.00;99940.03;5027246;28;20037;-70
2024/01/15 00:33:56;;;;;;;80.95;45.88;;;;;;;-2.67;100.00;99922.88;5028025;28;20032;-70
2024/01/15 00:36:21;;;;;;;78.03;43.00;;;;;;;-2.58;100.00;99947.13;5010673;28;20033;-70
2024/01/15 00:38:47;;;;;;;70.88;39.72;;;;;;;-2.95;100.00;99905.66;5010481;28;20376;-69
2024/01/15 00:41:13;;;;;;;67.47;37.55;;;;;;;-2.90;100.00;99909.06;5026511;28;20057;-70
2024/01/15 00:43:39;;;;;;;70.03;38.55;;;;;;;-2.82;100.00;99920.91;5027628;28;20029;-70
2024/01/15 00:46:05;;;;;;;69.72;39.42;;;;;;;-2.97;100.00;99909.75;5027383;28;20408;-69
2024/01/15 00:48:31;;;;;;;62.58;36.10;;;;;;;-3.17;100.00;99881.88;5028242;28;20067;-70
2024/01/15 00:50:56;;;;;;;76.35;41.22;;;;;;;-3.08;100.00;99950.88;5027453;28;20065;-69
2024/01/15 00:53:22;;;;;;;67.30;38.30;;;;;;;-2.91;100.00;99895.78;5009922;28;20022;-70
2024/01/15 00:55:48;;;;;;;73.03;41.35;;;;;;;-2.75;100.00;99945.09;5027880;28;20053;-69
2024/01/15 00:58:14;;;;;;;78.45;43.55;;;;;;;-3.17;100.00;99904.25;5027132;28;20507;-70
2024/01/15 01:00:39;;;;;;;73.28;40.22;;;;;;;-3.00;100.00;99929.53;5027777;28;20040;-70
2024/01/15 01:03:05;;;;;;;69.43;40.22;;;;;;;-3.15;100.00;99947.38;5026965;28;20095;-70
2024/01/15 01:05:30;;;;;;;73.22;39.65;;;;;;;-3.21;100.00;99894.22;5010176;28;20033;-70
2024/01/15 01:07:55;;;;;;;77.82;42.72;;;;;;;-2.94;100.00;99935.50;5027692;28;20099;-70
2024/01/15 01:10:21;;;;;;;77.40;44.00;;;;;;;-3.11;100.00;99881.22;5027046;28;20033;-70
2024/01/15 01:12:48;;;;;;;75.70;42.40;;;;;;;-2.77;100.00;99898.59;5009938;28;20112;-69
2024/01/15 01:15:14;;;;;;;78.57;43.50;;;;;;;-3.08;100.00;99946.75;5027513;28;20116;-70
2024/01/15 01:17:39;;;;;;;79.05;43.70;;;;;;;-2.52;100.00;99933.22;5009508;28;20112;-70
2024/01/15 01:20:08;;;;;;;79.55;43.53;;;;;;;-3.11;100.00;99944.16;5009270;28;20037;-70
2024/01/15 01:22:33;;;;;;;75.13;42.33;;;;;;;-2.83;100.00;99940.72;5027284;28;20042;-70
2024/01/15 01:24:59;;;;;;;79.95;43.63;;;;;;;-2.89;100.00;99929.00;5027291;28;20029;-70
2024/01/15 01:27:24;;;;;;;82.07;45.03;;;;;;;-2.97;100.00;99925.47;5009379;28;20048;-70
2024/01/15 01:29:50;;;;;;;79.25;43.80;;;;;;;-3.07;100.00;99916.09;5009399;28;20025;-69
2024/01/15 01:32:15;;;;;;;77.57;43.85;;;;;;;-2.99;100.00;99943.66;5027179;28;20138;-69
2024/01/15 01:34:44;;;;;;;69.30;39.03;;;;;;;-2.66;100.00;99890.63;5008894;28;20030;-70
2024/01/15 01:37:14;;;;;;;65.10;37.78;;;;;;;-2.90;100.00;99907.44;5009750;28;20099;-69
2024/01/15 01:39:40;;;;;;;65.95;37.88;;;;;;;-2.70;100.00;99878.06;5026853;28;20095;-69
2024/01/15 01:42:06;;;;;;;63.50;37.58;;;;;;;-2.66;100.00;99919.59;5026705;28;20029;-69
2024/01/15 01:44:32;;;;;;;63.47;38.10;;;;;;;-2.68;100.00;99921.22;5028526;28;20037;-70
2024/01/15 01:46:59;;;;;;;65.00;38.45;;;;;;;-2.88;100.00;99885.94;5030731;28;20036;-70
2024/01/15 01:49:26;;;;;;;65.22;35.95;;;;;;;-3.01;100.00;99893.06;5030344;28;20037;-70
2024/01/15 01:51:52;;;;;;;55.05;32.25;;;;;;;-3.04;100.00;99926.13;5030817;28;20029;-70
2024/01/15 01:54:19;;;;;;;56.55;30.25;;;;;;;-3.43;100.00;99882.91;5030713;28;20108;-70
2024/01/15 01:56:47;;;;;;;52.63;29.85;;;;;;;-2.92;100.00;99903.22;5030857;28;20633;-70
2024/01/15 01:59:13;;;;;;;50.13;28.38;;;;;;;-2.94;100.00;99900.72;5030399;28;20029;-69
2024/01/15 02:01:39;;;;;;;49.92;28.40;;;;;;;-3.13;100.00;99862.94;5028777;28;20434;-68
2024/01/15 02:04:05;;;;;;;51.88;28.25;;;;;;;-3.21;100.00;99855.28;5030181;28;20041;-69
2024/01/15 02:06:31;;;;;;;50.38;29.40;;;;;;;-3.37;100.00;99855.72;5030536;28;20029;-69
2024/01/15 02:08:56;;;;;;;56.35;31.50;;;;;;;-2.96;100.00;99824.41;5030243;28;20038;-70
2024/01/15 02:11:22;;;;;;;60.65;35.85;;;;;;;-2.95;100.00;99873.34;5030157;28;20037;-70
2024/01/15 02:13:48;;;;;;;69.38;40.35;;;;;;;-2.93;100.00;99856.81;5012323;28;20029;-70
2024/01/15 02:16:13;;;;;;;66.10;38.25;;;;;;;-2.87;100.00;99852.81;5029941;28;20033;-70
2024/01/15 02:18:46;;;;;;;64.43;37.10;;;;;;;-2.80;100.00;99856.28;5012683;28;20412;-69
2024/01/15 02:21:12;;;;;;;74.38;40.90;;;;;;;-3.02;100.00;99856.56;5029291;28;20040;-69
2024/01/15 02:23:38;;;;;;;76.38;43.85;;;;;;;-3.14;100.00;99847.19;5010365;28;20033;-70
2024/01/15 02:26:05;;;;;;;76.68;43.83;;;;;;;-3.13;100.00;99858.78;5030247;28;20033;-69
2024/01/15 02:28:32;;;;;;;74.75;41.72;;;;;;;-3.29;100.00;99833.56;5011570;28;20108;-70
2024/01/15 02:30:57;;;;;;;73.22;42.25;;;;;;;-3.31;100.00;99857.53;5012112;28;20029;-70
2024/01/15 02:33:23;;;;;;;76.10;43.70;;;;;;;-3.61;100.00;99813.75;5011957;28;20039;-70
2024/01/15 02:35:51;;;;;;;73.95;42.20;;;;;;;-3.46;100.00;99807.44;5012533;28;20770;-68
2024/01/15 02:38:17;;;;;;;86.68;43.95;;;;;;;-3.79;100.00;99848.00;5029100;28;20025;-69
2024/01/15 02:40:44;;;;;;;83.70;42.80;;;;;;;-3.89;100.00;99855.16;5029993;28;20033;-69
2024/01/15 02:43:10;;;;;;;81.32;42.05;;;;;;;-4.03;100.00;99847.34;5029618;28;20030;-69
2024/01/15 02:45:35;;;;;;;73.63;39.53;;;;;;;-3.94;100.00;99829.41;5029515;28;20162;-69
2024/01/15 02:48:01;;;;;;;76.85;39.38;;;;;;;-3.99;100.00;99819.34;5011784;28;20028;-70
2024/01/15 02:50:26;;;;;;;67.55;37.80;;;;;;;-4.08;100.00;99799.22;5012010;28;20025;-69
2024/01/15 02:52:52;;;;;;;72.20;38.88;;;;;;;-3.60;100.00;99840.22;5011038;28;20030;-69
2024/01/15 02:55:18;;;;;;;77.25;40.47;;;;;;;-3.72;100.00;99767.91;5009843;28;20056;-69
2024/01/15 02:57:43;;;;;;;72.85;40.65;;;;;;;-4.03;100.00;99797.72;5029222;28;20064;-69
2024/01/15 03:00:09;;;;;;;70.40;38.22;;;;;;;-3.79;100.00;99819.84;5011237;28;20087;-69
2024/01/15 03:02:43;;;;;;;65.97;37.05;;;;;;;-3.87;100.00;99789.88;5028525;28;20444;-70
2024/01/15 03:05:09;;;;;;;71.18;37.85;;;;;;;-3.92;100.00;99820.34;5028925;28;20088;-69
2024/01/15 03:07:34;;;;;;;72.38;39.78;;;;;;;-3.59;100.00;99801.34;5028976;28;20075;-70
2024/01/15 03:10:00;;;;;;;76.28;39.67;;;;;;;-3.53;100.00;99818.88;5011958;28;20037;-70
2024/01/15 03:12:25;;;;;;;74.82;39.10;;;;;;;-3.60;100.00;99809.59;5028771;28;20052;-70
2024/01/15 03:14:51;;;;;;;74.40;41.45;;;;;;;-3.99;100.00;99782.13;5029422;28;20033;-70
2024/01/15 03:17:16;;;;;;;75.65;41.05;;;;;;;-3.81;100.00;99814.84;5029326;28;20578;-70
2024/01/15 03:19:41;;;;;;;71.93;39.70;;;;;;;-4.00;100.00;99812.69;5011190;28;20029;-70
2024/01/15 03:22:08;;;;;;;70.40;38.47;;;;;;;-4.02;100.00;99799.38;5028473;28;20033;-70
2024/01/15 03:24:34;;;;;;;65.03;37.08;;;;;;;-3.69;100.00;99799.44;5011214;28;20039;-70
2024/01/15 03:27:00;;;;;;;67.72;37.03;;;;;;;-3.76;100.00;99793.47;5011430;28;20104;-70
2024/01/15 03:29:26;;;;;;;63.45;34.85;;;;;;;-3.46;100.00;99798.34;5010745;28;20029;-70
2024/01/15 03:31:52;;;;;;;62.63;34.67;;;;;;;-4.18;100.00;99761.75;5028653;28;20049;-69
2024/01/15 03:34:17;;;;;;;65.95;35.50;;;;;;;-4.17;100.00;99794.03;5010993;28;20041;-69
2024/01/15 03:36:43;;;;;;;64.43;36.42;;;;;;;-3.70;100.00;99777.88;5010926;28;20498;-69
2024/01/15 03:39:08;;;;;;;65.13;36.67;;;;;;;-4.03;100.00;99767.94;5028464;28;20056;-69
2024/01/15 03:41:33;;;;;;;68.85;36.55;;;;;;;-3.57;100.00;99798.13;5010259;28;20041;-70
2024/01/15 03:43:59;;;;;;;69.57;38.70;;;;;;;-3.64;100.00;99801.22;5028405;28;20044;-69
2024/01/15 03:46:24;;;;;;;69.93;38.88;;;;;;;-3.56;100.00;99792.31;5028660;28;20034;-69
2024/01/15 03:48:50;;;;;;;70.53;38.17;;;;;;;-4.06;100.00;99811.69;5009835;28;20021;-70
2024/01/15 03:51:17;;;;;;;65.68;37.17;;;;;;;-3.84;100.00;99761.78;5028402;28;20048;-69
2024/01/15 03:53:43;;;;;;;65.70;37.20;;;;;;;-4.12;100.00;99776.78;5011044;28;20025;-70
2024/01/15 03:56:08;;;;;;;66.13;36.88;;;;;;;-3.68;100.00;99806.91;5028605;28;20495;-69
2024/01/15 03:58:34;;;;;;;67.13;36.67;;;;;;;-3.63;100.00;99812.84;5010162;28;20034;-71
2024/01/15 04:00:59;;;;;;;65.72;36.20;;;;;;;-3.39;100.00;99795.25;5028131;28;20389;-69
2024/01/15 04:03:24;;;;;;;62.97;35.40;;;;;;;-3.14;100.00;99786.69;5009580;28;20458;-70
2024/01/15 04:05:50;;;;;;;71.18;39.03;;;;;;;-3.89;100.00;99760.84;5010336;28;20057;-70
2024/01/15 04:08:15;;;;;;;100.88;60.38;;;;;;;-3.42;100.00;99779.41;5027502;28;20060;-69
2024/01/15 04:10:41;;;;;;;178.30;114.45;;;;;;;-3.53;100.00;99789.91;5028010;28;20034;-70
2024/01/15 04:13:07;;;;;;;163.02;107.07;;;;;;;-3.11;100.00;99774.38;5027879;28;20021;-70
2024/01/15 04:15:32;;;;;;;93.53;50.92;;;;;;;-3.74;100.00;99746.34;5027924;28;20052;-69
2024/01/15 04:17:57;;;;;;;75.57;41.78;;;;;;;-3.72;100.00;99744.72;5028606;28;20479;-70
2024/01/15 04:20:23;;;;;;;72.30;39.65;;;;;;;-3.65;100.00;99776.38;5010173;28;20460;-70
2024/01/15 04:22:48;;;;;;;69.78;39.15;;;;;;;-3.56;100.00;99730.25;5006800;28;20419;-70
2024/01/15 04:25:14;;;;;;;72.40;41.00;;;;;;;-3.58;100.00;99771.59;5006578;28;20485;-69
2024/01/15 04:27:39;;;;;;;68.82;39.38;;;;;;;-2.99;100.00;99742.34;5008064;28;20169;-72
2024/01/15 04:30:05;;;;;;;72.25;39.17;;;;;;;-3.47;100.00;99753.63;5007715;28;20038;-71
2024/01/15 04:32:30;;;;;;;67.30;37.00;;;;;;;-3.50;100.00;99732.03;5008578;28;20021;-73
2024/01/15 04:34:56;;;;;;;71.15;39.40;;;;;;;-3.51;100.00;99736.16;5004582;28;20128;-71
2024/01/15 04:37:21;;;;;;;70.22;39.72;;;;;;;-3.84;100.00;99707.19;5008314;28;20099;-71
2024/01/15 04:39:47;;;;;;;74.40;40.65;;;;;;;-3.93;100.00;99694.56;5006995;28;20033;-73
2024/01/15 04:42:12;;;;;;;73.78;39.08;;;;;;;-3.90;100.00;99693.00;5010392;28;20029;-71
2024/01/15 04:44:37;;;;;;;72.28;39.88;;;;;;;-3.60;100.00;99681.31;5011333;28;20033;-71
2024/01/15 04:47:03;;;;;;;69.82;38.80;;;;;;;-3.55;100.00;99714.56;5005546;28;20065;-71
2024/01/15 04:49:29;;;;;;;73.70;39.38;;;;;;;-3.64;100.00;99719.28;5008175;28;20041;-70
2024/01/15 04:51:55;;;;;;;72.32;40.40;;;;;;;-3.73;100.00;99725.69;5010679;28;20030;-72
2024/01/15 04:54:20;;;;;;;95.40;50.13;;;;;;;-3.49;100.00;99708.03;5010284;28;20418;-70
2024/01/15 04:56:46;;;;;;;90.97;49.20;;;;;;;-3.34;100.00;99694.31;5010821;28;20397;-71
2024/01/15 04:59:12;;;;;;;115.07;61.13;;;;;;;-3.68;100.00;99665.41;5007760;28;20384;-71
2024/01/15 05:01:38;;;;;;;107.60;59.53;;;;;;;-3.82;100.00;99706.44;5007162;28;21510;-72
2024/01/15 05:04:03;;;;;;;102.25;58.38;;;;;;;-3.46;100.00;99678.28;5008061;28;20040;-71
2024/01/15 05:06:29;;;;;;;111.13;61.78;;;;;;;-4.02;100.00;99654.66;5005788;28;20119;-70
2024/01/15 05:08:54;;;;;;;112.22;61.30;;;;;;;-3.75;100.00;99646.22;5010198;28;20030;-73
2024/01/15 05:11:20;;;;;;;108.68;64.15;;;;;;;-3.60;100.00;99668.91;5008127;28;20032;-72
2024/01/15 05:13:45;;;;;;;104.75;61.58;;;;;;;-3.62;100.00;99677.09;5013367;28;20042;-72
2024/01/15 05:16:10;;;;;;;146.93;90.15;;;;;;;-4.00;100.00;99623.28;5005819;28;20117;-72
2024/01/15 05:18:37;;;;;;;170.27;99.22;;;;;;;-4.05;100.00;99662.00;5007015;28;20132;-74
2024/01/15 05:21:03;;;;;;;182.27;107.18;;;;;;;-3.90;100.00;99692.19;5013118;28;20021;-70
2024/01/15 05:23:28;;;;;;;219.35;121.60;;;;;;;-3.98;100.00;99649.78;5028036;28;20512;-70
2024/01/15 05:25:54;;;;;;;151.65;88.75;;;;;;;-3.75;100.00;99678.50;5017528;28;20108;-72
2024/01/15 05:28:19;;;;;;;136.85;83.53;;;;;;;-3.83;100.00;99682.44;5035210;28;20192;-71
2024/01/15 05:30:45;;;;;;;144.48;82.93;;;;;;;-3.75;100.00;99633.81;5035425;28;20109;-68
2024/01/15 05:33:10;;;;;;;143.93;84.25;;;;;;;-4.11;100.00;99603.16;5015758;28;20499;-71
2024/01/15 05:35:36;;;;;;;126.53;78.05;;;;;;;-3.74;100.00;99680.16;5029390;28;20127;-70
2024/01/15 05:38:02;;;;;;;122.75;71.82;;;;;;;-3.98;100.00;99651.44;5033123;28;20037;-71
2024/01/15 05:40:28;;;;;;;195.27;90.60;;;;;;;-4.17;100.00;99607.97;5014406;28;20113;-70
2024/01/15 05:42:53;;;;;;;183.57;90.93;;;;;;;-3.93;100.00;99684.63;5016645;28;20163;-70
2024/01/15 05:45:19;;;;;;;153.75;79.20;;;;;;;-3.59;100.00;99668.13;5014174;28;20162;-73
2024/01/15 05:47:44;;;;;;;136.88;75.28;;;;;;;-3.38;100.00;99642.91;5013021;28;20281;-73
2024/01/15 05:50:10;;;;;;;153.50;80.80;;;;;;;-3.43;100.00;99641.13;5030982;28;20041;-71
2024/01/15 05:52:36;;;;;;;163.60;84.07;;;;;;;-3.75;100.00;99620.53;5030787;28;20030;-71
2024/01/15 05:55:01;;;;;;;172.50;91.05;;;;;;;-4.03;100.00;99648.00;5013141;28;20037;-70
2024/01/15 05:57:27;;;;;;;165.32;85.88;;;;;;;-3.79;100.00;99611.34;5029785;28;20419;-71
2024/01/15 05:59:53;;;;;;;159.30;84.85;;;;;;;-3.32;100.00;99633.09;5030079;28;20030;-70
2024/01/15 06:02:18;;;;;;;159.95;87.57;;;;;;;-3.71;100.00;99597.47;5030939;28;20033;-70
2024/01/15 06:04:44;;;;;;;155.80;87.57;;;;;;;-3.91;100.00;99609.44;5011894;28;20026;-70
2024/01/15 06:07:09;;;;;;;154.75;86.55;;;;;;;-3.58;100.00;99639.13;5011849;28;21022;-70
2024/01/15 06:09:34;;;;;;;151.50;89.55;;;;;;;-3.18;100.00;99613.50;5029838;28;20446;-70
2024/01/15 06:12:00;;;;;;;152.18;91.05;;;;;;;-3.38;100.00;99584.91;5030478;28;20033;-70
2024/01/15 06:14:25;;;;;;;158.32;90.28;;;;;;;-4.22;100.00;99599.59;5012366;28;20033;-71
2024/01/15 06:16:52;;;;;;;133.90;76.65;;;;;;;-4.29;100.00;99632.47;5030021;28;20048;-70
2024/01/15 06:19:17;;;;;;;122.35;69.40;;;;;;;-3.83;100.00;99588.13;5012062;28;20048;-70
2024/01/15 06:21:43;;;;;;;127.78;72.45;;;;;;;-3.38;100.00;99614.72;5030787;28;20025;-70
2024/01/15 06:24:09;;;;;;;125.32;68.85;;;;;;;-3.15;100.00;99606.94;5030430;28;20620;-69
2024/01/15 06:26:35;;;;;;;108.85;59.08;;;;;;;-3.65;100.00;99623.28;5030123;28;20064;-70
2024/01/15 06:29:00;;;;;;;116.53;61.08;;;;;;;-3.97;100.00;99562.16;5012495;28;20083;-70
2024/01/15 06:31:26;;;;;;;111.03;59.92;;;;;;;-3.08;100.00;99583.06;5028782;28;20112;-69
2024/01/15 06:33:51;;;;;;;107.35;56.80;;;;;;;-3.30;100.00;99581.81;5030145;28;20092;-69
2024/01/15 06:36:16;;;;;;;105.30;57.42;;;;;;;-3.73;100.00;99596.59;5030106;28;20044;-70
2024/01/15 06:38:44;;;;;;;104.78;55.28;;;;;;;-2.29;100.00;99585.31;5011901;28;20116;-70
2024/01/15 06:41:09;;;;;;;109.18;60.17;;;;;;;-1.91;100.00;99566.88;5030288;28;20631;-69
2024/01/15 06:43:35;;;;;;;130.70;71.60;;;;;;;-1.97;100.00;99575.09;5030311;28;20037;-70
2024/01/15 06:46:00;;;;;;;139.13;79.03;;;;;;;-1.80;100.00;99573.66;5029794;28;20420;-70
2024/01/15 06:48:26;;;;;;;134.27;80.32;;;;;;;-1.45;100.00;99608.22;5011369;28;20512;-71
2024/01/15 06:50:51;;;;;;;131.10;76.55;;;;;;;-0.52;100.00;99546.94;5029883;28;20503;-70
2024/01/15 06:53:17;;;;;;;126.88;73.28;;;;;;;0.38;100.00;99530.91;5012266;28;20112;-73
2024/01/15 06:55:42;;;;;;;119.30;67.18;;;;;;;1.44;100.00;99547.97;5011558;28;20033;-70
2024/01/15 06:58:08;;;;;;;112.22;66.85;;;;;;;0.53;100.00;99521.88;5011945;28;20471;-71
2024/01/15 07:00:33;;;;;;;103.50;61.50;;;;;;;1.58;100.00;99517.94;5029410;28;20107;-71
2024/01/15 07:02:59;;;;;;;105.53;62.55;;;;;;;1.87;100.00;99527.94;5011664;28;20040;-71
2024/01/15 07:05:24;;;;;;;100.32;59.95;;;;;;;1.71;100.00;99537.13;5029346;28;20036;-73
2024/01/15 07:07:50;;;;;;;109.65;65.03;;;;;;;0.76;100.00;99549.44;5029699;28;20419;-71
2024/01/15 07:10:16;;;;;;;103.80;61.08;;;;;;;1.31;100.00;99543.78;5012192;28;20495;-71
2024/01/15 07:12:44;;;;;;;106.28;64.25;;;;;;;1.83;100.00;99526.28;5029864;28;20025;-71
2024/01/15 07:15:10;;;;;;;117.18;71.45;;;;;;;0.63;100.00;99501.06;5011935;28;20028;-72
2024/01/15 07:17:39;;;;;;;128.95;81.38;;;;;;;0.73;100.00;99464.41;5011262;28;20411;-71
2024/01/15 07:20:08;;;;;;;133.70;85.43;;;;;;;0.52;100.00;99504.31;5011755;28;20029;-70
2024/01/15 07:22:35;;;;;;;145.32;95.60;;;;;;;-0.12;100.00;99490.69;5029158;28;20538;-70
2024/01/15 07:25:01;;;;;;;139.82;88.00;;;;;;;0.16;100.00;99490.00;5027628;28;20021;-70
2024/01/15 07:27:26;;;;;;;134.73;88.25;;;;;;;-0.01;100.00;99519.88;5028382;28;20397;-70
2024/01/15 07:29:52;;;;;;;135.80;87.30;;;;;;;0.47;100.00;99528.47;5029165;28;20438;-70
2024/01/15 07:32:17;;;;;;;144.27;94.57;;;;;;;0.53;100.00;99511.84;5028850;28;20404;-70
2024/01/15 07:34:43;;;;;;;170.02;106.20;;;;;;;0.35;100.00;99525.91;5011309;28;20053;-70
2024/01/15 07:37:09;;;;;;;143.05;89.78;;;;;;;0.18;100.00;99497.53;5028836;28;20529;-71
2024/01/15 07:39:34;;;;;;;130.40;84.05;;;;;;;-0.05;100.00;99425.78;5028720;28;20029;-70
2024/01/15 07:42:00;;;;;;;137.82;88.03;;;;;;;0.52;100.00;99517.66;5008643;28;20104;-70
2024/01/15 07:44:26;;;;;;;139.23;88.20;;;;;;;0.87;100.00;99502.81;5011260;28;20107;-70
2024/01/15 07:46:51;;;;;;;134.52;87.82;;;;;;;0.81;100.00;99468.59;5010678;28;20033;-71
2024/01/15 07:49:17;;;;;;;134.73;84.93;;;;;;;0.58;100.00;99480.19;5028762;28;20053;-71
2024/01/15 07:51:43;;;;;;;135.27;84.85;;;;;;;1.22;100.00;99498.72;5028892;28;20080;-71
2024/01/15 07:54:09;;;;;;;138.45;82.55;;;;;;;1.15;100.00;99507.03;5011535;28;20026;-71
2024/01/15 07:56:56;;;;;;;122.75;74.97;;;;;;;0.75;100.00;99471.06;5028143;28;20044;-71
2024/01/15 07:59:21;;;;;;;125.25;74.25;;;;;;;0.66;100.00;99460.22;5009594;28;20496;-71
2024/01/15 08:01:47;;;;;;;114.10;66.47;;;;;;;0.72;100.00;99471.09;5011106;28;20032;-71
2024/01/15 08:04:13;;;;;;;116.00;71.22;;;;;;;0.98;100.00;99483.66;5009380;28;20419;-71
2024/01/15 08:06:38;;;;;;;115.50;66.53;;;;;;;1.01;100.00;99485.34;5029086;28;20124;-71
2024/01/15 08:09:04;;;;;;;127.97;72.82;;;;;;;1.01;100.00;99471.13;5010780;28;20087;-71
2024/01/15 08:11:30;;;;;;;122.45;73.40;;;;;;;0.50;100.00;99516.84;5028906;28;20025;-71
2024/01/15 08:13:56;;;;;;;119.88;70.15;;;;;;;0.30;100.00;99532.56;5028148;28;20034;-71
2024/01/15 08:16:21;;;;;;;111.57;65.90;;;;;;;0.62;100.00;99541.88;5028899;28;20108;-71
2024/01/15 08:18:47;;;;;;;101.43;64.65;;;;;;;0.73;100.00;99491.94;5028944;28;20037;-72
2024/01/15 08:21:13;;;;;;;90.15;56.15;;;;;;;0.94;100.00;99503.66;5027307;28;20029;-71
2024/01/15 08:23:41;;;;;;;90.22;56.97;;;;;;;1.15;100.00;99494.50;5010698;28;20400;-71
2024/01/15 08:26:08;;;;;;;84.65;51.30;;;;;;;1.34;100.00;99498.72;5028475;28;20108;-71
2024/01/15 08:28:34;;;;;;;81.88;49.38;;;;;;;1.32;100.00;99490.38;5010555;28;20033;-72
2024/01/15 08:31:00;;;;;;;82.35;52.10;;;;;;;1.32;100.00;99500.41;5010998;28;20493;-71
2024/01/15 08:33:26;;;;;;;93.82;52.72;;;;;;;1.40;100.00;99491.22;5011002;28;20033;-71
2024/01/15 08:35:52;;;;;;;89.22;56.20;;;;;;;1.36;100.00;99457.00;5009191;28;20116;-72
2024/01/15 08:38:19;;;;;;;81.65;50.65;;;;;;;1.57;100.00;99486.19;5010768;28;20430;-71
2024/01/15 08:40:44;;;;;;;62.45;37.53;;;;;;;1.58;100.00;99481.22;5028530;28;20037;-71
2024/01/15 08:43:10;;;;;;;63.17;37.25;;;;;;;1.68;100.00;99490.38;5010702;28;20048;-71
2024/01/15 08:45:35;;;;;;;69.45;39.72;;;;;;;1.47;100.00;99487.03;5027498;28;20037;-71
2024/01/15 08:48:01;;;;;;;56.38;34.60;;;;;;;1.45;100.00;99448.66;5028203;28;20021;-71
2024/01/15 08:50:27;;;;;;;58.95;36.15;;;;;;;1.35;100.00;99434.47;5010411;28;20033;-73
2024/01/15 08:52:52;;;;;;;56.67;35.88;;;;;;;1.58;100.00;99428.63;5028239;28;20038;-71
2024/01/15 08:55:18;;;;;;;63.45;37.35;;;;;;;1.38;100.00;99419.44;5031457;28;20033;-71
2024/01/15 08:57:44;;;;;;;56.05;33.17;;;;;;;1.60;100.00;99414.44;5032119;28;20184;-71
2024/01/15 09:00:10;;;;;;;68.55;39.03;;;;;;;1.92;100.00;99444.44;5014313;28;20120;-72
2024/01/15 09:02:35;;;;;;;70.05;42.30;;;;;;;1.61;100.00;99407.72;5014260;28;20034;-73
2024/01/15 09:05:01;;;;;;;71.32;44.10;;;;;;;2.05;100.00;99433.53;5013799;28;20043;-71
2024/01/15 09:07:27;;;;;;;82.13;51.72;;;;;;;2.33;100.00;99425.09;5031912;28;20025;-71
2024/01/15 09:09:53;;;;;;;84.18;52.25;;;;;;;2.08;100.00;99392.59;5031740;28;20065;-71
2024/01/15 09:12:22;;;;;;;91.10;54.72;;;;;;;1.91;100.00;99381.78;5031637;28;20029;-72
2024/01/15 09:14:47;;;;;;;85.93;53.05;;;;;;;2.24;100.00;99404.25;5031757;28;20033;-71
2024/01/15 09:17:13;;;;;;;94.95;55.88;;;;;;;2.24;100.00;99386.69;5014381;28;20025;-72
2024/01/15 09:19:41;;;;;;;74.70;47.50;;;;;;;2.11;100.00;99397.59;5031920;28;20037;-70
2024/01/15 09:22:07;;;;;;;81.93;51.15;;;;;;;2.26;100.00;99369.94;5030802;28;20112;-71
2024/01/15 09:24:32;;;;;;;84.82;50.63;;;;;;;2.71;100.00;99404.81;5009807;28;20200;-71
2024/01/15 09:26:58;;;;;;;83.72;52.65;;;;;;;2.55;100.00;99368.97;5011491;28;20478;-71
2024/01/15 09:29:23;;;;;;;90.15;54.08;;;;;;;2.51;100.00;99361.47;5010399;28;20037;-71
2024/01/15 09:31:52;;;;;;;83.90;49.25;;;;;;;2.44;100.00;99370.69;5011838;28;20427;-71
2024/01/15 09:34:18;;;;;;;85.82;52.70;;;;;;;2.77;100.00;99337.03;5009471;28;20092;-71
2024/01/15 09:36:43;;;;;;;95.82;59.92;;;;;;;2.75;100.00;99376.38;5010309;28;20038;-71
2024/01/15 09:39:10;;;;;;;101.80;61.13;;;;;;;2.50;100.00;99357.28;5011692;28;20069;-71
2024/01/15 09:41:36;;;;;;;99.40;58.85;;;;;;;2.52;100.00;99323.00;5011309;28;20033;-71
2024/01/15 09:44:04;;;;;;;97.10;58.55;;;;;;;2.92;100.00;99314.34;5012015;28;20032;-71
2024/01/15 09:46:32;;;;;;;95.00;58.47;;;;;;;3.03;100.00;99305.03;5010062;28;20124;-71
2024/01/15 09:48:58;;;;;;;101.72;57.15;;;;;;;3.30;100.00;99309.81;5010265;28;20037;-72
2024/01/15 09:51:24;;;;;;;88.95;50.80;;;;;;;3.26;100.00;99300.63;5009773;28;20463;-72
2024/01/15 09:53:50;;;;;;;83.38;54.70;;;;;;;3.44;100.00;99308.00;5011697;28;21300;-71
2024/01/15 09:56:16;;;;;;;85.65;52.38;;;;;;;3.45;100.00;99264.44;5010156;28;20036;-71
2024/01/15 09:58:42;;;;;;;79.78;50.92;;;;;;;3.07;100.00;99218.00;5011219;28;20474;-71
2024/01/15 10:01:08;;;;;;;82.40;52.70;;;;;;;3.75;100.00;99262.41;5011123;28;20022;-71
2024/01/15 10:03:34;;;;;;;83.10;51.92;;;;;;;3.67;100.00;99226.47;5009833;28;20026;-71
2024/01/15 10:06:00;;;;;;;82.18;51.28;;;;;;;3.80;100.00;99253.13;5009401;28;20495;-72
2024/01/15 10:08:25;;;;;;;75.85;47.97;;;;;;;3.81;100.00;99230.50;5011043;28;20026;-73
2024/01/15 10:10:51;;;;;;;80.30;51.08;;;;;;;3.75;100.00;99220.50;5011078;28;20104;-76
2024/01/15 10:13:17;;;;;;;82.85;54.47;;;;;;;3.81;100.00;99209.53;5010698;28;20635;-72
2024/01/15 10:15:46;;;;;;;88.82;56.65;;;;;;;3.89;100.00;99188.50;5010853;28;20041;-72
2024/01/15 10:18:12;;;;;;;81.78;52.05;;;;;;;3.79;100.00;99203.72;5010715;28;20116;-72
2024/01/15 10:20:38;;;;;;;77.97;50.13;;;;;;;3.88;100.00;99184.28;5010746;28;20129;-72
2024/01/15 10:23:04;;;;;;;86.05;57.03;;;;;;;3.99;100.00;99171.59;5017854;28;20044;-72
2024/01/15 10:25:30;;;;;;;75.82;49.65;;;;;;;4.00;100.00;99133.84;5012907;28;20043;-72
2024/01/15 10:28:01;;;;;;;69.35;44.72;;;;;;;4.05;100.00;99128.75;5013039;28;20116;-71
2024/01/15 10:30:26;;;;;;;63.53;42.55;;;;;;;4.20;100.00;99136.03;5030649;28;20087;-72
2024/01/15 10:32:59;;;;;;;59.95;39.80;;;;;;;4.10;100.00;99130.34;5011332;28;20033;-73
2024/01/15 10:35:33;;;;;;;67.35;45.63;;;;;;;4.23;100.00;99130.97;5030042;28;20545;-72
2024/01/15 10:38:02;;;;;;;76.45;52.00;;;;;;;4.34;100.00;99124.06;5012206;28;20116;-72
2024/01/15 10:40:29;;;;;;;86.32;59.15;;;;;;;4.29;100.00;99134.22;5030594;28;20526;-73
2024/01/15 10:42:54;;;;;;;83.85;57.78;;;;;;;4.37;100.00;99117.31;5012306;28;20029;-71
2024/01/15 10:45:20;;;;;;;86.20;59.15;;;;;;;4.64;100.00;99095.84;5012278;28;20075;-71
2024/01/15 10:47:46;;;;;;;95.50;62.70;;;;;;;4.65;100.00;99071.53;5029983;28;20040;-72
2024/01/15 10:50:12;;;;;;;59.28;40.70;;;;;;;5.72;100.00;99071.75;5029710;28;20033;-73
2024/01/15 10:52:42;;;;;;;76.80;49.10;;;;;;;6.46;100.00;99067.41;5029423;28;20083;-72
2024/01/15 10:55:09;;;;;;;94.50;63.97;;;;;;;5.19;100.00;99091.41;5029938;28;20033;-71
2024/01/15 10:57:38;;;;;;;97.88;63.50;;;;;;;4.79;100.00;99062.88;5029771;28;20260;-71
2024/01/15 11:00:08;;;;;;;63.70;44.17;;;;;;;4.83;100.00;99087.09;5029439;28;20514;-72
2024/01/15 11:02:36;;;;;;;54.30;36.33;;;;;;;4.93;100.00;99065.09;5024851;28;20025;-72
2024/01/15 11:05:02;;;;;;;48.42;31.13;;;;;;;4.83;100.00;99054.38;5011336;28;20029;-72